WetterOnline ( https://www.wetteronline.de )

Wetter aktuell Geising

Aktuelles Wetter: Zinnwald (882m)

6-stündlich | Neueste Meldungen
Ortszeit Temperatur Wetter
Sa, 31.07. 14:00 19.7° C leicht bewölkt
Sa, 31.07. 8:00 14.8° C leicht bewölkt
Sa, 31.07. 2:00 16.8° C bedeckt
Fr, 30.07. 20:00 19.2° C wolkenlos
Fr, 30.07. 14:00 19.9° C wolkig
Fr, 30.07. 8:00 14.1° C wolkenlos
Fr, 30.07. 2:00 11.1° C fast wolkenlos
Do, 29.07. 20:00 17.1° C wolkenlos
Ortszeit Temperatur Wetter
Sa, 31.07. 15:30 20.3° C wolkenlos
Sa, 31.07. 15:20 20.3° C wolkenlos
Sa, 31.07. 15:10 20.3° C fast wolkenlos
Sa, 31.07. 15:00 19.8° C leicht bewölkt
Sa, 31.07. 14:50 19.8° C leicht bewölkt
Sa, 31.07. 14:40 20.0° C leicht bewölkt
Sa, 31.07. 14:30 19.9° C leicht bewölkt
Sa, 31.07. 14:00 19.7° C leicht bewölkt
Sa, 31.07. 13:30 19.1° C wolkenlos
Sa, 31.07. 13:00 19.0° C wolkenlos
Sa, 31.07. 12:30 18.7° C wolkenlos
Ortszeit Relative Feuchte Sichtweite
Sa, 31.07. 14:00 48% 65 km
Sa, 31.07. 8:00 73% 55 km
Sa, 31.07. 2:00 71% 55 km
Fr, 30.07. 20:00 57% >70 km
Fr, 30.07. 14:00 60% >70 km
Fr, 30.07. 8:00 70% 55 km
Fr, 30.07. 2:00 77% >70 km
Do, 29.07. 20:00 56% >70 km
Ortszeit Relative Feuchte Sichtweite
Sa, 31.07. 15:30 46% 60 km
Sa, 31.07. 15:20 46% -
Sa, 31.07. 15:10 46% -
Sa, 31.07. 15:00 44% >70 km
Sa, 31.07. 14:50 44% -
Sa, 31.07. 14:40 45% -
Sa, 31.07. 14:30 51% >70 km
Sa, 31.07. 14:00 48% 65 km
Sa, 31.07. 13:30 47% >70 km
Sa, 31.07. 13:00 48% >70 km
Sa, 31.07. 12:30 48% 55 km
Ortszeit Niederschlagsmenge Niederschlagsart
Sa, 31.07. 14:00 0.0 l/m2 in 6 Std. -
Sa, 31.07. 8:00 0.0 l/m2 in 12 Std. -
Sa, 31.07. 2:00 0.0 l/m2 in 6 Std. -
Fr, 30.07. 20:00 0.0 l/m2 in 12 Std. -
Fr, 30.07. 14:00 0.0 l/m2 in 6 Std. -
Fr, 30.07. 8:00 0.0 l/m2 in 12 Std. -
Fr, 30.07. 2:00 0.0 l/m2 in 6 Std. -
Do, 29.07. 20:00 0.0 l/m2 in 12 Std. -
Ortszeit Niederschlagsmenge Niederschlagsart
Sa, 31.07. 15:30 0.0 l/m2 in 1 Std. -
Sa, 31.07. 15:20 keine Meldung -
Sa, 31.07. 15:10 keine Meldung -
Sa, 31.07. 15:00 0.0 l/m2 in 1 Std. -
Sa, 31.07. 14:50 keine Meldung -
Sa, 31.07. 14:40 keine Meldung -
Sa, 31.07. 14:30 0.0 l/m2 in 1 Std. -
Sa, 31.07. 14:00 0.0 l/m2 in 1 Std. -
Sa, 31.07. 13:30 0.0 l/m2 in 1 Std. -
Sa, 31.07. 13:00 0.0 l/m2 in 1 Std. -
Sa, 31.07. 12:30 0.0 l/m2 in 1 Std. -
Ortszeit Stärke Spitze Richtung
km/h Bft. km/h Grad Sektor
Sa, 31.07. 14:00 20 4 48 230° SW
Sa, 31.07. 8:00 14 3 40 220° SW
Sa, 31.07. 2:00 22 4 36 230° SW
Fr, 30.07. 20:00 18 3 36 190° S
Fr, 30.07. 14:00 18 3 36 150° SO
Fr, 30.07. 8:00 13 3 19 210° SW
Fr, 30.07. 2:00 7 2 29 240° SW
Do, 29.07. 20:00 17 3 41 230° SW
Ortszeit Stärke Spitze Richtung
km/h Bft. km/h Grad Sektor
Sa, 31.07. 15:30 25 4 36 200° S
Sa, 31.07. 15:20 25 4 - 200° S
Sa, 31.07. 15:10 20 4 - 230° SW
Sa, 31.07. 15:00 25 4 40 240° SW
Sa, 31.07. 14:50 25 4 - 240° SW
Sa, 31.07. 14:40 22 4 - 240° SW
Sa, 31.07. 14:30 18 3 32 220° SW
Sa, 31.07. 14:00 20 4 43 230° SW
Sa, 31.07. 13:30 22 4 43 230° SW
Sa, 31.07. 13:00 26 4 48 230° SW
Sa, 31.07. 12:30 24 4 44 220° SW
Ortszeit Untergrenze Bedeckung Gattung
total tief tief mittel hoch
Sa, 31.07. 14:00 1500 m 2/8 2/8 - - -
Sa, 31.07. 8:00 1800 m 4/8 4/8 - - -
Sa, 31.07. 2:00 6900 m 8/8 8/8 - - -
Fr, 30.07. 20:00 - 0/8 0/8 - - -
Fr, 30.07. 14:00 1110 m 6/8 5/8 - - -
Fr, 30.07. 8:00 - 0/8 0/8 - - -
Fr, 30.07. 2:00 8400 m 1/8 0/8 - - -
Do, 29.07. 20:00 - 0/8 0/8 - - -
Ortszeit Bedeckungsgrad in Achtel und Wolkenuntergrenze
Sa, 31.07. 15:30 keine Wolken
Sa, 31.07. 15:20 keine Wolken
Sa, 31.07. 15:10 1(9000m)
Sa, 31.07. 15:00 1(1500m) 3(9000m)
Sa, 31.07. 14:50 1(1500m) 3(9000m)
Sa, 31.07. 14:40 2(1500m) 3(9000m)
Sa, 31.07. 14:30 2(1500m)
Sa, 31.07. 14:00 2(1500m)
Sa, 31.07. 13:30 keine Wolken
Sa, 31.07. 13:00 keine Wolken
Sa, 31.07. 12:30 keine Wolken
Ortszeit Stationsdruck (hPa) Tendenz (hPa in 3 Std.)
Sa, 31.07. 14:00 911 + 0,3
Sa, 31.07. 8:00 910 + 0,3
Sa, 31.07. 2:00 910 - 0,1
Fr, 30.07. 20:00 910 - 0,6
Fr, 30.07. 14:00 912 - 0,8
Fr, 30.07. 8:00 914 + 0,1
Fr, 30.07. 2:00 914 - 0,4
Do, 29.07. 20:00 914 0,0
Ortszeit Stationsdruck (hPa) Tendenz (hPa in 3 Std.)
Sa, 31.07. 15:30 911 0,0
Sa, 31.07. 15:20 911 keine Meldung
Sa, 31.07. 15:10 911 keine Meldung
Sa, 31.07. 15:00 911 + 0,1
Sa, 31.07. 14:50 911 keine Meldung
Sa, 31.07. 14:40 911 keine Meldung
Sa, 31.07. 14:30 911 + 0,1
Sa, 31.07. 14:00 911 + 0,3
Sa, 31.07. 13:30 911 + 0,2
Sa, 31.07. 13:00 911 + 0,3
Sa, 31.07. 12:30 911 + 0,1
Ortszeit Schneehöhe (cm)
Sa, 31.07. 14:00 0
Sa, 31.07. 8:00 0
Sa, 31.07. 2:00 0
Fr, 30.07. 20:00 0
Fr, 30.07. 14:00 0
Fr, 30.07. 8:00 0
Fr, 30.07. 2:00 0
Do, 29.07. 20:00 0
Ortszeit Schneehöhe (cm)
Sa, 31.07. 15:30 0
Sa, 31.07. 15:20 0
Sa, 31.07. 15:10 0
Sa, 31.07. 15:00 0
Sa, 31.07. 14:50 0
Sa, 31.07. 14:40 0
Sa, 31.07. 14:30 0
Sa, 31.07. 14:00 0
Sa, 31.07. 13:30 0
Sa, 31.07. 13:00 0
Sa, 31.07. 12:30 0
Link zu dieser Seite / Seite empfehlen

Das Wetter in ...